Time;durP1;ratioP1;P1;durP2;ratioP2;P2;SDS_P1;SDS_P2;PMS_P1;PMS_P2;Temp;Humidity;BMP_temperature;BMP_pressure;BME280_temperature;BME280_humidity;BME280_pressure;Samples;Min_cycle;Max_cycle;Signal;HPM_P1;HPM_P2
2023/12/18 00:01:37;;;;;;;880.85;57.65;;;5.30;76.60;;;0.08;100.00;97506.94;4956885;28;20493;-54
2023/12/18 00:04:03;;;;;;;745.83;45.40;;;5.30;76.70;;;0.07;100.00;97497.44;4957061;28;20034;-51
2023/12/18 00:06:32;;;;;;;708.20;47.22;;;5.30;76.70;;;0.08;100.00;97493.84;4954546;28;20030;-53
2023/12/18 00:08:57;;;;;;;617.97;44.60;;;5.30;76.70;;;0.09;100.00;97490.25;4959383;28;20097;-51
2023/12/18 00:11:23;;;;;;;713.20;49.65;;;5.30;76.70;;;0.09;100.00;97485.81;4956915;28;20099;-50
2023/12/18 00:13:49;;;;;;;603.55;44.55;;;5.40;76.80;;;0.10;100.00;97482.25;4956710;28;20034;-51
2023/12/18 00:16:15;;;;;;;612.75;44.05;;;5.40;76.80;;;0.06;100.00;97482.69;4956440;28;20473;-53
2023/12/18 00:18:41;;;;;;;753.75;47.30;;;5.40;76.70;;;0.06;100.00;97485.31;4956057;28;20042;-53
2023/12/18 00:21:07;;;;;;;661.60;47.53;;;5.40;76.70;;;0.06;100.00;97480.06;4954789;28;20024;-50
2023/12/18 00:23:32;;;;;;;757.83;48.80;;;5.40;76.70;;;0.06;100.00;97477.44;4957823;28;20049;-53
2023/12/18 00:25:58;;;;;;;652.97;47.72;;;5.30;76.60;;;-0.03;100.00;97473.97;4957419;28;20076;-49
2023/12/18 00:28:24;;;;;;;605.10;40.78;;;5.30;76.60;;;-0.04;100.00;97472.28;4955957;28;20030;-59
2023/12/18 00:30:50;;;;;;;620.50;42.08;;;5.30;76.50;;;-0.04;100.00;97470.50;4958834;28;20153;-49
2023/12/18 00:33:16;;;;;;;500.85;37.30;;;5.30;76.60;;;-0.02;100.00;97467.72;4956973;28;20382;-50
2023/12/18 00:35:42;;;;;;;736.65;50.47;;;5.30;76.60;;;-0.04;100.00;97464.44;4957811;28;20031;-51
2023/12/18 00:38:07;;;;;;;692.97;50.88;;;5.30;76.60;;;0.00;100.00;97471.03;4958968;28;20126;-53
2023/12/18 00:40:33;;;;;;;760.63;48.00;;;5.30;76.70;;;-0.05;100.00;97461.00;4955527;28;20041;-51
2023/12/18 00:42:59;;;;;;;726.47;47.70;;;5.30;76.70;;;-0.11;100.00;97458.16;4955022;28;20047;-54
2023/12/18 00:45:25;;;;;;;745.80;47.80;;;5.30;76.60;;;-0.18;100.00;97455.34;4950070;28;20030;-54
2023/12/18 00:47:52;;;;;;;798.33;58.33;;;5.20;76.50;;;-0.22;100.00;97448.72;4956046;28;20027;-50
2023/12/18 00:50:18;;;;;;;783.15;57.38;;;5.20;76.40;;;-0.21;100.00;97447.78;4956089;28;20065;-56
2023/12/18 00:52:44;;;;;;;810.45;54.42;;;5.10;76.40;;;-0.22;100.00;97447.91;4958289;28;20033;-53
2023/12/18 00:55:10;;;;;;;809.83;49.65;;;5.10;76.40;;;-0.20;100.00;97449.41;4952954;28;20030;-51
2023/12/18 00:57:36;;;;;;;792.67;49.97;;;5.10;76.50;;;-0.18;100.00;97449.28;4957405;28;20027;-49
2023/12/18 01:00:02;;;;;;;813.90;52.53;;;5.10;76.70;;;-0.15;100.00;97459.44;4959256;28;20093;-50
2023/12/18 01:02:28;;;;;;;817.60;50.78;;;5.10;76.80;;;-0.13;100.00;97453.06;4954377;28;20105;-50
2023/12/18 01:04:53;;;;;;;577.05;36.90;;;5.10;76.90;;;-0.15;100.00;97448.97;4960325;28;20137;-53
2023/12/18 01:07:19;;;;;;;550.95;36.92;;;5.10;76.90;;;-0.16;100.00;97455.16;4955197;28;20030;-49
2023/12/18 01:09:45;;;;;;;613.80;45.90;;;5.10;76.80;;;-0.13;100.00;97458.28;4961126;28;20125;-51
2023/12/18 01:12:11;;;;;;;935.00;55.90;;;5.10;76.90;;;-0.15;100.00;97455.03;4961175;28;20584;-51
2023/12/18 01:14:37;;;;;;;504.45;35.03;;;5.10;76.90;;;-0.13;100.00;97462.72;4958097;28;20033;-53
2023/12/18 01:17:03;;;;;;;536.30;38.17;;;5.10;76.90;;;-0.17;100.00;97454.34;4972756;28;20014;-50
2023/12/18 01:19:29;;;;;;;431.17;28.77;;;5.20;76.90;;;-0.16;100.00;97455.16;4962848;28;20499;-51
2023/12/18 01:21:54;;;;;;;455.13;31.05;;;5.10;76.70;;;-0.20;100.00;97454.66;4963538;28;20026;-50
2023/12/18 01:24:20;;;;;;;497.27;32.65;;;5.10;76.60;;;-0.25;100.00;97456.91;4961781;28;20034;-51
2023/12/18 01:26:46;;;;;;;666.03;42.20;;;5.10;76.60;;;-0.25;100.00;97459.53;4962993;28;20049;-51
2023/12/18 01:29:12;;;;;;;743.75;43.70;;;5.10;76.60;;;-0.30;100.00;97462.59;4970235;28;20474;-51
2023/12/18 01:31:38;;;;;;;473.20;31.58;;;5.10;76.60;;;-0.29;100.00;97458.16;4960055;28;20117;-50
2023/12/18 01:34:04;;;;;;;584.30;37.25;;;5.10;76.60;;;-0.27;100.00;97459.66;4960070;28;20022;-55
2023/12/18 01:36:30;;;;;;;740.45;43.75;;;5.10;76.60;;;-0.27;100.00;97449.19;4957902;28;20052;-52
2023/12/18 01:38:56;;;;;;;484.35;34.67;;;5.10;76.70;;;-0.28;100.00;97457.22;4966744;28;20450;-52
2023/12/18 01:41:22;;;;;;;572.00;38.17;;;5.10;76.70;;;-0.31;100.00;97453.09;4960605;28;20036;-49
2023/12/18 01:43:48;;;;;;;539.95;34.35;;;5.00;76.60;;;-0.27;100.00;97464.91;4963122;28;20093;-52
2023/12/18 01:46:22;;;;;;;577.67;37.33;;;5.00;76.50;;;-0.31;100.00;97462.75;4962802;28;20120;-52
2023/12/18 01:48:50;;;;;;;624.95;42.28;;;5.00;76.60;;;-0.31;100.00;97460.94;4953540;28;20069;-55
2023/12/18 01:51:19;;;;;;;594.83;39.88;;;5.00;76.60;;;-0.32;100.00;97456.66;4962815;28;20350;-50
2023/12/18 01:53:54;;;;;;;666.38;41.15;;;5.00;76.60;;;-0.31;100.00;97460.94;4959278;28;20022;-50
2023/12/18 01:56:26;;;;;;;889.78;50.33;;;5.00;76.60;;;-0.33;100.00;97443.75;4959352;28;20408;-55
2023/12/18 01:58:55;;;;;;;736.38;45.53;;;5.00;76.60;;;-0.37;100.00;97450.25;4964494;28;20069;-51
2023/12/18 02:01:22;;;;;;;548.63;36.10;;;5.00;76.60;;;-0.37;100.00;97445.03;4982608;28;20046;-51
2023/12/18 02:03:52;;;;;;;587.83;34.20;;;5.00;76.60;;;-0.44;100.00;97439.53;4984919;28;20019;-53
2023/12/18 02:06:19;;;;;;;632.67;38.17;;;5.00;76.60;;;-0.41;100.00;97439.22;4953077;28;20026;-52
2023/12/18 02:08:46;;;;;;;547.88;35.15;;;5.00;76.50;;;-0.37;100.00;97434.53;4958616;28;20073;-51
2023/12/18 02:11:13;;;;;;;623.22;38.22;;;4.90;76.50;;;-0.42;100.00;97434.97;4971396;28;20116;-50
2023/12/18 02:13:42;;;;;;;568.13;35.92;;;4.90;76.50;;;-0.44;100.00;97428.25;4956451;28;20037;-54
2023/12/18 02:16:10;;;;;;;925.03;55.88;;;4.90;76.60;;;-0.44;100.00;97429.06;4964058;28;20035;-52
2023/12/18 02:18:45;;;;;;;663.25;49.97;;;4.90;76.60;;;-0.45;100.00;97418.75;4961880;28;20470;-54
2023/12/18 02:21:19;;;;;;;544.22;32.40;;;4.90;76.70;;;-0.42;100.00;97421.88;4962803;28;20034;-55
2023/12/18 02:23:46;;;;;;;633.72;38.28;;;4.80;76.70;;;-0.40;100.00;97419.13;4961576;28;20493;-51
2023/12/18 02:26:13;;;;;;;605.88;36.67;;;4.80;76.80;;;-0.46;100.00;97417.94;4959669;28;20397;-56
2023/12/18 02:28:39;;;;;;;979.72;60.92;;;4.80;76.70;;;-0.45;100.00;97419.56;4956487;28;20023;-51
2023/12/18 02:31:09;;;;;;;628.13;42.30;;;4.80;76.80;;;-0.51;100.00;97407.06;4984114;28;20512;-52
2023/12/18 02:33:35;;;;;;;599.60;36.20;;;4.80;76.80;;;-0.54;100.00;97404.75;4955725;28;20041;-52
2023/12/18 02:36:02;;;;;;;600.22;35.58;;;4.80;76.80;;;-0.56;100.00;97410.16;4959038;28;20046;-53
2023/12/18 02:38:28;;;;;;;406.80;31.75;;;4.80;76.80;;;-0.60;100.00;97411.41;4960967;28;20101;-54
2023/12/18 02:40:53;;;;;;;484.33;32.22;;;4.70;76.70;;;-0.62;100.00;97405.53;4957686;28;20125;-52
2023/12/18 02:43:19;;;;;;;773.60;44.67;;;4.70;76.70;;;-0.64;100.00;97402.22;4957956;28;20049;-53
2023/12/18 02:45:45;;;;;;;433.38;31.52;;;4.70;76.80;;;-0.67;100.00;97402.53;4962124;28;20054;-52
2023/12/18 02:48:11;;;;;;;467.10;35.75;;;4.70;76.80;;;-0.59;100.00;97401.78;4959311;28;20026;-52
2023/12/18 02:50:37;;;;;;;532.05;30.95;;;4.60;76.80;;;-0.57;100.00;97403.25;4958719;28;20061;-49
2023/12/18 02:53:03;;;;;;;721.50;39.60;;;4.60;76.90;;;-0.56;100.00;97404.09;4958648;28;20050;-52
2023/12/18 02:55:29;;;;;;;466.15;29.20;;;4.60;77.00;;;-0.54;100.00;97412.63;4958878;28;20496;-51
2023/12/18 02:57:55;;;;;;;664.40;39.78;;;4.60;77.00;;;-0.57;100.00;97405.88;4956262;28;20061;-52
2023/12/18 03:00:20;;;;;;;457.58;29.33;;;4.60;77.00;;;-0.53;100.00;97411.66;4966028;28;20109;-50
2023/12/18 03:02:46;;;;;;;739.10;46.05;;;4.70;77.10;;;-0.48;100.00;97410.22;4952540;28;20033;-50
2023/12/18 03:05:13;;;;;;;520.60;32.22;;;4.70;77.10;;;-0.47;100.00;97401.41;4963219;28;20041;-50
2023/12/18 03:07:40;;;;;;;548.72;34.20;;;4.70;77.10;;;-0.47;100.00;97404.03;4955531;28;20045;-51
2023/12/18 03:10:06;;;;;;;469.65;31.17;;;4.80;77.20;;;-0.46;100.00;97402.22;4959702;28;20028;-49
2023/12/18 03:12:32;;;;;;;713.03;42.85;;;4.80;77.20;;;-0.42;100.00;97402.75;4962292;28;20045;-55
2023/12/18 03:14:58;;;;;;;412.23;30.70;;;4.80;77.20;;;-0.41;100.00;97404.38;4956770;28;20030;-55
2023/12/18 03:17:24;;;;;;;485.85;31.02;;;4.90;77.10;;;-0.39;100.00;97405.88;4960686;28;20022;-49
2023/12/18 03:19:50;;;;;;;589.90;36.22;;;4.90;77.80;;;-0.40;100.00;97396.38;4954242;28;20042;-54
2023/12/18 03:22:16;;;;;;;492.95;30.88;;;4.90;77.00;;;-0.40;100.00;97403.41;4962666;28;20088;-50
2023/12/18 03:24:42;;;;;;;494.95;34.30;;;4.90;77.70;;;-0.38;100.00;97404.88;4957763;28;20477;-51
2023/12/18 03:27:09;;;;;;;369.50;27.45;;;4.90;76.90;;;-0.36;100.00;97404.75;4960089;28;20022;-50
2023/12/18 03:29:36;;;;;;;357.23;27.42;;;4.90;77.00;;;-0.37;100.00;97400.50;4952168;28;20022;-52
2023/12/18 03:32:03;;;;;;;707.88;49.15;;;4.90;77.00;;;-0.35;100.00;97404.59;4954893;28;20037;-52
2023/12/18 03:34:30;;;;;;;441.98;33.17;;;4.90;77.00;;;-0.34;100.00;97397.59;4958892;28;20018;-50
2023/12/18 03:36:56;;;;;;;449.60;29.30;;;4.90;76.90;;;-0.42;100.00;97390.47;4952543;28;20029;-50
2023/12/18 03:39:22;;;;;;;624.22;35.65;;;4.90;76.90;;;-0.42;100.00;97394.88;4957322;28;20034;-49
2023/12/18 03:41:48;;;;;;;643.95;39.72;;;4.90;76.90;;;-0.45;100.00;97388.16;4953491;28;20074;-53
2023/12/18 03:44:14;;;;;;;468.83;31.17;;;4.90;76.80;;;-0.42;100.00;97389.66;4961441;28;20045;-49
2023/12/18 03:46:40;;;;;;;605.13;38.35;;;4.90;76.80;;;-0.41;100.00;97381.63;4956376;28;20022;-53
2023/12/18 03:49:06;;;;;;;594.88;38.65;;;4.90;76.90;;;-0.37;100.00;97390.84;4954540;28;20437;-53
2023/12/18 03:51:33;;;;;;;630.95;40.15;;;4.90;77.00;;;-0.33;100.00;97381.69;4954035;28;20051;-50
2023/12/18 03:53:58;;;;;;;847.38;51.20;;;4.90;77.00;;;-0.39;100.00;97381.50;4956823;28;20525;-53
2023/12/18 03:56:24;;;;;;;606.05;36.28;;;4.90;77.00;;;-0.45;100.00;97375.06;4958042;28;20034;-52
2023/12/18 03:58:50;;;;;;;426.02;31.25;;;4.90;77.00;;;-0.44;100.00;97371.47;4954356;28;20026;-53
2023/12/18 04:01:16;;;;;;;568.10;41.08;;;4.90;76.90;;;-0.42;100.00;97374.75;4959968;28;20033;-54
2023/12/18 04:03:41;;;;;;;574.38;37.30;;;4.90;77.00;;;-0.38;100.00;97381.31;4958785;28;20053;-52
2023/12/18 04:06:09;;;;;;;529.75;35.13;;;4.90;77.00;;;-0.39;100.00;97382.31;4958529;28;20030;-52
2023/12/18 04:08:37;;;;;;;726.17;47.50;;;4.90;77.10;;;-0.41;100.00;97381.63;4952911;28;20113;-54
2023/12/18 04:11:03;;;;;;;639.38;41.20;;;4.90;77.00;;;-0.41;100.00;97386.88;4955401;28;20030;-51
2023/12/18 04:13:28;;;;;;;756.65;45.92;;;4.90;77.10;;;-0.38;100.00;97389.19;4957281;28;20385;-53
2023/12/18 04:15:54;;;;;;;644.42;45.65;;;4.90;77.00;;;-0.45;100.00;97385.53;4955297;28;20030;-54
2023/12/18 04:18:20;;;;;;;711.53;42.75;;;4.80;77.00;;;-0.44;100.00;97387.16;4962384;28;20032;-53
2023/12/18 04:20:46;;;;;;;715.90;41.90;;;4.80;77.00;;;-0.42;100.00;97392.25;4952169;28;20507;-51
2023/12/18 04:23:12;;;;;;;536.42;34.25;;;4.80;77.10;;;-0.41;100.00;97394.72;4953609;28;20023;-52
2023/12/18 04:25:37;;;;;;;824.92;50.88;;;4.80;77.90;;;-0.36;100.00;97392.47;4953981;28;20034;-54
2023/12/18 04:28:04;;;;;;;512.20;35.10;;;4.80;77.20;;;-0.30;100.00;97386.63;4955509;28;20027;-49
2023/12/18 04:30:30;;;;;;;601.97;38.58;;;4.80;77.20;;;-0.31;100.00;97386.81;4957714;28;20035;-51
2023/12/18 04:32:56;;;;;;;632.47;39.42;;;4.90;77.20;;;-0.30;100.00;97386.63;4954749;28;20119;-52
2023/12/18 04:35:22;;;;;;;495.88;36.55;;;4.90;77.20;;;-0.29;100.00;97387.44;4958604;28;20119;-50
2023/12/18 04:37:47;;;;;;;410.02;31.77;;;4.90;77.20;;;-0.30;100.00;97386.63;4954687;28;20026;-54
2023/12/18 04:40:14;;;;;;;490.38;33.47;;;5.00;77.30;;;-0.27;100.00;97391.56;4959288;28;20027;-50
2023/12/18 04:42:39;;;;;;;491.50;35.33;;;5.00;77.30;;;-0.25;100.00;97386.19;4956113;28;20025;-54
2023/12/18 04:45:06;;;;;;;405.48;30.80;;;5.00;77.30;;;-0.25;100.00;97388.81;4959694;28;20389;-51
2023/12/18 04:47:32;;;;;;;567.45;39.33;;;5.00;77.30;;;-0.29;100.00;97385.66;4960656;28;20030;-51
2023/12/18 04:49:58;;;;;;;581.60;38.90;;;5.00;77.20;;;-0.33;100.00;97386.94;4955645;28;20046;-53
2023/12/18 04:52:23;;;;;;;641.03;41.28;;;5.00;77.10;;;-0.30;100.00;97385.81;4960405;28;20029;-52
2023/12/18 04:54:49;;;;;;;774.45;48.85;;;5.00;77.10;;;-0.32;100.00;97383.34;4961213;28;20062;-55
2023/12/18 04:57:15;;;;;;;786.50;50.60;;;5.00;77.20;;;-0.31;100.00;97379.75;4962705;28;20022;-53
2023/12/18 04:59:41;;;;;;;793.40;42.65;;;5.00;77.10;;;-0.32;100.00;97379.91;4985607;28;20041;-50
2023/12/18 05:02:07;;;;;;;792.95;44.75;;;5.00;77.00;;;-0.31;100.00;97385.00;4962058;28;20034;-50
2023/12/18 05:04:32;;;;;;;734.30;48.40;;;4.90;77.00;;;-0.35;100.00;97386.25;4957364;28;20050;-52
2023/12/18 05:06:58;;;;;;;741.28;47.53;;;4.90;77.00;;;-0.32;100.00;97391.19;4963255;28;20354;-50
2023/12/18 05:09:24;;;;;;;698.40;42.17;;;4.90;77.00;;;-0.31;100.00;97384.19;4961959;28;20034;-50
2023/12/18 05:11:50;;;;;;;655.42;40.67;;;5.00;77.10;;;-0.29;100.00;97387.44;4958795;28;20039;-49
2023/12/18 05:14:16;;;;;;;578.85;41.42;;;4.90;77.00;;;-0.27;100.00;97391.56;4959016;28;20030;-52
2023/12/18 05:16:42;;;;;;;606.38;39.95;;;5.00;77.10;;;-0.24;100.00;97391.25;4956653;28;20142;-52
2023/12/18 05:19:08;;;;;;;618.05;43.65;;;5.00;77.20;;;-0.25;100.00;97381.78;4961556;28;20070;-52
2023/12/18 05:21:33;;;;;;;721.42;47.55;;;5.00;77.20;;;-0.27;100.00;97383.72;4960716;28;20030;-51
2023/12/18 05:23:59;;;;;;;723.67;43.92;;;5.10;77.30;;;-0.28;100.00;97386.50;4959473;28;20473;-53
2023/12/18 05:26:25;;;;;;;823.05;49.33;;;5.10;77.20;;;-0.22;100.00;97387.66;4963028;28;20500;-54
2023/12/18 05:28:51;;;;;;;842.10;49.08;;;5.10;77.20;;;-0.21;100.00;97384.91;4950259;28;20171;-53
2023/12/18 05:31:18;;;;;;;616.92;40.33;;;5.10;77.10;;;-0.22;100.00;97385.84;4961788;28;20469;-55
2023/12/18 05:33:44;;;;;;;592.75;37.92;;;5.10;77.20;;;-0.18;100.00;97394.25;4959108;28;20045;-52
2023/12/18 05:36:10;;;;;;;561.78;37.90;;;5.10;77.20;;;-0.17;100.00;97391.47;4959552;28;20490;-53
2023/12/18 05:38:36;;;;;;;580.70;37.65;;;5.10;77.10;;;-0.18;100.00;97391.66;4961305;28;20033;-53
2023/12/18 05:41:02;;;;;;;572.20;36.47;;;5.10;77.10;;;-0.17;100.00;97388.03;4960046;28;20041;-53
2023/12/18 05:43:27;;;;;;;650.80;40.80;;;5.10;77.20;;;-0.17;100.00;97393.28;4959608;28;20390;-51
2023/12/18 05:45:53;;;;;;;811.50;51.42;;;5.10;77.20;;;-0.24;100.00;97400.94;4957395;28;20509;-50
2023/12/18 05:48:19;;;;;;;675.30;41.85;;;5.10;77.10;;;-0.27;100.00;97394.19;4960263;28;20050;-52
2023/12/18 05:50:45;;;;;;;676.17;44.00;;;5.00;77.00;;;-0.27;100.00;97396.00;4954639;28;20065;-50
2023/12/18 05:53:11;;;;;;;541.65;36.42;;;5.00;77.00;;;-0.26;100.00;97398.44;4961469;28;20022;-52
2023/12/18 05:55:37;;;;;;;603.35;39.08;;;5.00;77.10;;;-0.25;100.00;97410.59;4958357;28;20408;-54
2023/12/18 05:58:03;;;;;;;799.28;47.25;;;5.00;77.00;;;-0.28;100.00;97400.41;4958075;28;20029;-53
2023/12/18 06:00:29;;;;;;;611.42;38.00;;;5.00;77.10;;;-0.28;100.00;97402.22;4961433;28;20109;-55
2023/12/18 06:02:54;;;;;;;634.90;36.22;;;5.00;77.10;;;-0.31;100.00;97395.47;4953687;28;20053;-55
2023/12/18 06:05:20;;;;;;;737.78;44.28;;;5.00;77.10;;;-0.35;100.00;97393.31;4984688;28;20446;-51
2023/12/18 06:07:46;;;;;;;807.33;48.80;;;5.00;77.10;;;-0.38;100.00;97397.03;4956164;28;20109;-53
2023/12/18 06:10:12;;;;;;;601.00;37.28;;;5.00;77.00;;;-0.36;100.00;97391.66;4964863;28;20041;-52
2023/12/18 06:12:38;;;;;;;702.10;38.67;;;5.00;77.00;;;-0.39;100.00;97390.16;4952426;28;20116;-54
2023/12/18 06:15:06;;;;;;;551.92;34.80;;;5.00;77.00;;;-0.45;100.00;97389.94;4963205;28;20023;-55
2023/12/18 06:17:32;;;;;;;523.67;28.92;;;4.90;76.90;;;-0.44;100.00;97384.53;4958325;28;20068;-55
2023/12/18 06:19:58;;;;;;;426.13;27.92;;;4.90;76.90;;;-0.47;100.00;97379.63;4966438;28;20030;-55
2023/12/18 06:22:25;;;;;;;412.80;28.45;;;4.90;76.90;;;-0.46;100.00;97373.41;4961391;28;20034;-53
2023/12/18 06:24:50;;;;;;;542.00;29.45;;;4.90;77.00;;;-0.56;100.00;97383.16;4957958;28;20030;-55
2023/12/18 06:27:16;;;;;;;476.92;30.52;;;4.90;77.00;;;-0.55;100.00;97374.31;4952343;28;20476;-54
2023/12/18 06:29:43;;;;;;;565.85;38.60;;;4.80;76.80;;;-0.57;100.00;97379.69;4954936;28;20501;-55
2023/12/18 06:32:09;;;;;;;481.40;30.60;;;4.80;76.80;;;-0.56;100.00;97370.88;4955443;28;20036;-54
2023/12/18 06:34:35;;;;;;;467.25;28.48;;;4.90;76.90;;;-0.56;100.00;97380.53;4956335;28;20366;-53
2023/12/18 06:37:01;;;;;;;797.00;45.33;;;4.80;76.80;;;-0.59;100.00;97386.09;4954935;28;20029;-52
2023/12/18 06:39:27;;;;;;;400.85;26.02;;;4.80;76.80;;;-0.60;100.00;97376.56;4957062;28;20038;-57
2023/12/18 06:41:52;;;;;;;582.65;31.27;;;4.80;76.80;;;-0.63;100.00;97375.06;4954096;28;20049;-56
2023/12/18 06:44:18;;;;;;;441.73;29.38;;;4.80;76.80;;;-0.60;100.00;97377.38;4961440;28;20093;-50
2023/12/18 06:46:44;;;;;;;437.30;23.92;;;4.80;76.80;;;-0.59;100.00;97384.28;4949459;28;20473;-55
2023/12/18 06:49:10;;;;;;;398.92;31.85;;;4.80;76.80;;;-0.57;100.00;97384.13;4953779;28;20038;-55
2023/12/18 06:51:36;;;;;;;686.80;41.92;;;4.70;76.80;;;-0.61;100.00;97396.69;4952810;28;20041;-54
2023/12/18 06:54:01;;;;;;;318.92;21.95;;;4.80;76.90;;;-0.63;100.00;97392.56;4955175;28;20039;-55
2023/12/18 06:56:27;;;;;;;329.83;21.88;;;4.80;76.80;;;-0.66;100.00;97392.88;4962066;28;20080;-52
2023/12/18 06:58:53;;;;;;;495.80;31.00;;;4.70;76.70;;;-0.70;100.00;97394.97;4952318;28;20402;-53
2023/12/18 07:01:19;;;;;;;476.10;26.92;;;4.70;76.60;;;-0.79;100.00;97394.06;4952778;28;20056;-54
2023/12/18 07:03:45;;;;;;;262.30;19.70;;;4.70;76.60;;;-0.78;100.00;97397.53;4952916;28;20026;-54
2023/12/18 07:06:10;;;;;;;432.38;27.02;;;4.70;76.60;;;-0.79;100.00;97401.09;4951516;28;20022;-54
2023/12/18 07:08:37;;;;;;;381.63;27.65;;;4.70;76.50;;;-0.79;100.00;97395.84;4951596;28;20066;-53
2023/12/18 07:11:03;;;;;;;585.10;37.47;;;4.60;76.50;;;-0.81;100.00;97409.09;4954258;28;20389;-54
2023/12/18 07:13:29;;;;;;;386.83;24.75;;;4.60;76.60;;;-0.85;100.00;97399.06;4950116;28;20455;-53
2023/12/18 07:15:55;;;;;;;365.48;25.27;;;4.60;76.60;;;-0.84;100.00;97406.78;4951766;28;20058;-55
2023/12/18 07:18:21;;;;;;;470.95;30.13;;;4.60;76.50;;;-0.84;100.00;97400.72;4954581;28;20056;-52
2023/12/18 07:20:46;;;;;;;365.90;24.02;;;4.60;76.60;;;-0.88;100.00;97392.34;4958626;28;20045;-51
2023/12/18 07:23:13;;;;;;;508.38;29.45;;;4.60;76.60;;;-0.84;100.00;97398.13;4959772;28;20030;-54
2023/12/18 07:25:39;;;;;;;389.27;24.95;;;4.60;76.70;;;-0.89;100.00;97401.16;4955651;28;20033;-52
2023/12/18 07:28:09;;;;;;;398.42;25.60;;;4.60;76.60;;;-0.85;100.00;97399.06;4955256;28;20068;-50
2023/12/18 07:30:38;;;;;;;496.40;30.98;;;4.60;76.60;;;-0.84;100.00;97398.13;4957751;28;20162;-53
2023/12/18 07:33:05;;;;;;;533.47;26.52;;;4.60;76.60;;;-0.84;100.00;97403.34;4955565;28;20022;-52
2023/12/18 07:35:31;;;;;;;527.63;30.60;;;4.60;76.70;;;-0.92;100.00;97401.47;4957808;28;20670;-56
2023/12/18 07:37:57;;;;;;;557.00;29.58;;;4.50;76.60;;;-0.85;100.00;97409.53;4950007;28;20308;-51
2023/12/18 07:40:23;;;;;;;409.10;27.13;;;4.50;76.70;;;-0.82;100.00;97404.81;4954171;28;20037;-54
2023/12/18 07:42:49;;;;;;;376.33;24.55;;;4.50;76.80;;;-0.84;100.00;97409.41;4949129;28;20504;-53
2023/12/18 07:45:15;;;;;;;312.40;21.58;;;4.60;76.90;;;-0.85;100.00;97407.75;4955873;28;20524;-50
2023/12/18 07:47:41;;;;;;;285.75;20.77;;;4.60;76.70;;;-0.83;100.00;97411.03;4957482;28;20027;-52
2023/12/18 07:50:08;;;;;;;530.60;33.17;;;4.60;76.70;;;-0.79;100.00;97401.91;4952654;28;20120;-51
2023/12/18 07:52:35;;;;;;;298.80;20.58;;;4.60;76.70;;;-0.76;100.00;97406.03;4971872;28;20018;-56
2023/12/18 07:55:02;;;;;;;262.73;19.63;;;4.70;76.80;;;-0.71;100.00;97404.63;4954567;28;20885;-51
2023/12/18 07:57:28;;;;;;;505.05;29.08;;;4.70;76.80;;;-0.69;100.00;97407.06;4958310;28;20022;-52
2023/12/18 07:59:54;;;;;;;552.97;31.00;;;4.70;76.80;;;-0.75;100.00;97402.47;4963156;28;20413;-52
2023/12/18 08:02:21;;;;;;;583.10;33.30;;;4.80;76.70;;;-0.77;100.00;97399.97;4946071;28;20030;-51
2023/12/18 08:04:47;;;;;;;551.22;32.90;;;4.90;76.70;;;-0.69;100.00;97396.59;4954567;28;20498;-53
2023/12/18 08:07:13;;;;;;;496.85;30.48;;;4.90;76.70;;;-0.63;100.00;97401.25;4956870;28;20058;-52
2023/12/18 08:09:40;;;;;;;456.73;29.90;;;4.90;76.70;;;-0.55;100.00;97390.03;4957306;28;20406;-51
2023/12/18 08:12:06;;;;;;;321.27;22.38;;;4.90;76.60;;;-0.51;100.00;97388.75;4956657;28;20471;-53
2023/12/18 08:14:32;;;;;;;517.17;33.22;;;5.00;76.70;;;-0.48;100.00;97377.97;4958302;28;20113;-53
2023/12/18 08:16:58;;;;;;;432.27;26.00;;;5.10;76.70;;;-0.52;100.00;97390.56;4956614;28;20019;-53
2023/12/18 08:19:24;;;;;;;372.10;24.23;;;5.20;76.70;;;-0.55;100.00;97385.63;4962254;28;20032;-56
2023/12/18 08:21:49;;;;;;;483.55;32.40;;;5.20;76.50;;;-0.49;100.00;97378.97;4961076;28;20046;-54
2023/12/18 08:24:15;;;;;;;344.42;28.35;;;5.20;76.40;;;-0.43;100.00;97380.97;4956714;28;20044;-51
2023/12/18 08:26:41;;;;;;;225.80;17.45;;;5.30;76.30;;;-0.42;100.00;97374.75;4959692;28;20029;-53
2023/12/18 08:29:10;;;;;;;452.73;27.95;;;5.30;76.30;;;-0.37;100.00;97376.94;4958381;28;20022;-51
2023/12/18 08:31:37;;;;;;;199.80;21.50;;;5.30;76.20;;;-0.32;100.00;97378.09;4961767;28;20088;-55
2023/12/18 08:34:03;;;;;;;462.08;28.02;;;5.40;76.40;;;-0.26;100.00;97380.13;4958741;28;20029;-53
2023/12/18 08:36:30;;;;;;;229.80;18.67;;;5.40;76.30;;;-0.20;100.00;97378.69;4960665;28;20385;-56
2023/12/18 08:38:56;;;;;;;195.40;16.65;;;5.50;76.20;;;-0.22;100.00;97371.94;4961514;28;20046;-56
2023/12/18 08:41:21;;;;;;;264.20;19.55;;;5.50;76.50;;;-0.28;100.00;97368.97;4965002;28;20141;-54
2023/12/18 08:43:47;;;;;;;405.00;23.55;;;5.60;76.00;;;-0.33;100.00;97363.38;4955312;28;20022;-54
2023/12/18 08:46:13;;;;;;;518.83;28.48;;;5.60;76.20;;;-0.34;100.00;97372.22;4961558;28;20089;-54
2023/12/18 08:48:39;;;;;;;353.67;20.65;;;5.60;75.70;;;-0.25;100.00;97371.28;4957162;28;20552;-56
2023/12/18 08:51:05;;;;;;;332.13;20.00;;;5.60;75.60;;;-0.21;100.00;97379.66;4959331;28;20121;-52
2023/12/18 08:53:30;;;;;;;235.18;18.20;;;5.60;75.50;;;-0.14;100.00;97379.88;4960209;28;20034;-55
2023/12/18 08:55:56;;;;;;;488.83;29.38;;;5.60;75.40;;;-0.19;100.00;97376.88;4953830;28;20059;-56
2023/12/18 08:58:25;;;;;;;371.85;21.38;;;5.70;75.50;;;-0.16;100.00;97376.56;4960089;28;20524;-54
2023/12/18 09:00:52;;;;;;;354.42;25.00;;;5.60;75.50;;;-0.15;100.00;97379.06;4959586;28;20501;-55
2023/12/18 09:03:20;;;;;;;606.05;36.15;;;5.70;75.70;;;-0.10;100.00;97373.34;4961389;28;20108;-53
2023/12/18 09:05:47;;;;;;;490.13;30.10;;;5.70;75.60;;;-0.02;100.00;97373.41;4965452;28;20466;-54
2023/12/18 09:08:13;;;;;;;348.48;27.13;;;5.80;75.70;;;0.01;100.00;97370.47;4960135;28;20023;-51
2023/12/18 09:10:42;;;;;;;546.58;33.55;;;5.90;75.80;;;0.00;100.00;97368.84;4960187;28;20038;-51
2023/12/18 09:13:07;;;;;;;376.35;27.33;;;5.90;75.70;;;0.09;100.00;97369.69;4958679;28;20042;-55
2023/12/18 09:15:33;;;;;;;397.38;24.90;;;6.00;75.60;;;0.13;100.00;97374.50;4965936;28;20030;-57
2023/12/18 09:17:59;;;;;;;250.18;20.40;;;6.00;75.60;;;0.20;100.00;97377.31;4963517;28;20030;-53
2023/12/18 09:20:25;;;;;;;367.60;24.13;;;6.10;75.60;;;0.25;100.00;97368.97;4964326;28;20048;-54
2023/12/18 09:22:52;;;;;;;351.02;23.83;;;6.10;75.60;;;0.23;100.00;97371.75;4961650;28;20022;-54
2023/12/18 09:25:18;;;;;;;285.95;19.35;;;6.20;75.60;;;0.25;100.00;97368.97;4960335;28;20105;-54
2023/12/18 09:27:44;;;;;;;567.30;35.53;;;6.20;75.50;;;0.34;100.00;97370.66;4968089;28;20113;-51
2023/12/18 09:30:11;;;;;;;455.13;30.27;;;6.30;75.40;;;0.34;100.00;97370.66;4960910;28;20397;-51
2023/12/18 09:32:37;;;;;;;386.13;26.50;;;6.30;75.30;;;0.39;100.00;97366.59;4959233;28;20026;-51
2023/12/18 09:35:04;;;;;;;411.67;26.60;;;6.40;75.30;;;0.43;100.00;97365.28;4961400;28;20035;-56
2023/12/18 09:37:30;;;;;;;400.83;25.83;;;6.50;75.20;;;0.44;100.00;97368.75;4954956;28;20050;-55
2023/12/18 09:39:55;;;;;;;517.65;30.75;;;6.50;75.00;;;0.46;100.00;97361.53;4958855;28;20482;-54
2023/12/18 09:42:21;;;;;;;329.95;22.30;;;6.50;75.00;;;0.48;100.00;97356.97;4959136;28;20153;-53
2023/12/18 09:44:48;;;;;;;274.48;20.77;;;6.50;75.00;;;0.55;100.00;97357.16;4958957;28;20027;-52
2023/12/18 09:47:14;;;;;;;405.27;27.25;;;6.50;75.00;;;0.61;100.00;97362.56;4948199;28;20023;-53
2023/12/18 09:49:40;;;;;;;254.82;20.63;;;6.60;75.10;;;0.64;100.00;97364.88;4944870;28;20035;-53
2023/12/18 09:52:10;;;;;;;219.60;18.35;;;6.70;75.10;;;0.69;100.00;97365.25;4968397;28;20023;-53
2023/12/18 09:54:42;;;;;;;395.33;25.77;;;6.80;75.10;;;0.78;100.00;97352.94;4954329;28;20034;-53
2023/12/18 09:57:13;;;;;;;288.02;25.20;;;6.80;75.20;;;0.85;100.00;97353.97;4951605;28;20023;-54